sensor_id;sensor_type;location;lat;lon;timestamp;temperature;humidity
52621;DHT22;38515;53.160;6.990;2023-02-28T00:01:10;2.70;99.90
52621;DHT22;38515;53.160;6.990;2023-02-28T00:03:36;2.70;99.90
52621;DHT22;38515;53.160;6.990;2023-02-28T00:06:06;2.70;99.90
52621;DHT22;38515;53.160;6.990;2023-02-28T00:08:32;2.80;99.90
52621;DHT22;38515;53.160;6.990;2023-02-28T00:11:03;2.10;99.90
52621;DHT22;38515;53.160;6.990;2023-02-28T00:13:29;2.80;99.90
52621;DHT22;38515;53.160;6.990;2023-02-28T00:16:03;2.80;99.90
52621;DHT22;38515;53.160;6.990;2023-02-28T00:18:29;2.50;99.90
52621;DHT22;38515;53.160;6.990;2023-02-28T00:20:57;2.80;99.90
52621;DHT22;38515;53.160;6.990;2023-02-28T00:23:23;2.80;99.90
52621;DHT22;38515;53.160;6.990;2023-02-28T00:25:50;2.80;99.90
52621;DHT22;38515;53.160;6.990;2023-02-28T00:28:17;2.80;99.90
52621;DHT22;38515;53.160;6.990;2023-02-28T00:30:43;2.80;99.90
52621;DHT22;38515;53.160;6.990;2023-02-28T00:33:09;2.70;99.90
52621;DHT22;38515;53.160;6.990;2023-02-28T00:35:35;2.70;99.90
52621;DHT22;38515;53.160;6.990;2023-02-28T00:38:00;2.40;99.90
52621;DHT22;38515;53.160;6.990;2023-02-28T00:40:27;2.70;99.90
52621;DHT22;38515;53.160;6.990;2023-02-28T00:42:53;2.60;99.90
52621;DHT22;38515;53.160;6.990;2023-02-28T00:45:18;2.60;99.90
52621;DHT22;38515;53.160;6.990;2023-02-28T00:47:44;2.60;99.90
52621;DHT22;38515;53.160;6.990;2023-02-28T00:50:12;2.70;99.90
52621;DHT22;38515;53.160;6.990;2023-02-28T00:52:38;3.30;99.90
52621;DHT22;38515;53.160;6.990;2023-02-28T00:55:04;2.60;99.90
52621;DHT22;38515;53.160;6.990;2023-02-28T00:57:30;2.60;99.90
52621;DHT22;38515;53.160;6.990;2023-02-28T00:59:56;2.70;99.90
52621;DHT22;38515;53.160;6.990;2023-02-28T01:02:22;3.30;99.90
52621;DHT22;38515;53.160;6.990;2023-02-28T01:04:49;2.70;99.90
52621;DHT22;38515;53.160;6.990;2023-02-28T01:07:15;2.70;99.90
52621;DHT22;38515;53.160;6.990;2023-02-28T01:09:41;2.80;99.90
52621;DHT22;38515;53.160;6.990;2023-02-28T01:12:08;2.80;99.90
52621;DHT22;38515;53.160;6.990;2023-02-28T01:14:34;2.80;99.90
52621;DHT22;38515;53.160;6.990;2023-02-28T01:17:00;2.90;99.90
52621;DHT22;38515;53.160;6.990;2023-02-28T01:19:26;2.90;99.90
52621;DHT22;38515;53.160;6.990;2023-02-28T01:21:52;2.90;99.90
52621;DHT22;38515;53.160;6.990;2023-02-28T01:24:19;2.90;99.90
52621;DHT22;38515;53.160;6.990;2023-02-28T01:26:45;2.90;99.90
52621;DHT22;38515;53.160;6.990;2023-02-28T01:29:10;2.80;99.90
52621;DHT22;38515;53.160;6.990;2023-02-28T01:31:36;2.80;99.90
52621;DHT22;38515;53.160;6.990;2023-02-28T01:34:02;2.70;99.90
52621;DHT22;38515;53.160;6.990;2023-02-28T01:36:29;2.70;99.90
52621;DHT22;38515;53.160;6.990;2023-02-28T01:38:55;2.70;99.90
52621;DHT22;38515;53.160;6.990;2023-02-28T01:41:23;2.70;99.90
52621;DHT22;38515;53.160;6.990;2023-02-28T01:46:15;2.80;99.90
52621;DHT22;38515;53.160;6.990;2023-02-28T01:49:09;2.80;99.90
52621;DHT22;38515;53.160;6.990;2023-02-28T01:51:45;2.80;99.90
52621;DHT22;38515;53.160;6.990;2023-02-28T01:54:22;2.80;99.90
52621;DHT22;38515;53.160;6.990;2023-02-28T01:57:03;2.80;99.90
52621;DHT22;38515;53.160;6.990;2023-02-28T01:59:41;2.80;99.90
52621;DHT22;38515;53.160;6.990;2023-02-28T02:02:13;2.80;99.90
52621;DHT22;38515;53.160;6.990;2023-02-28T02:04:41;2.70;99.90
52621;DHT22;38515;53.160;6.990;2023-02-28T02:07:10;2.80;99.90
52621;DHT22;38515;53.160;6.990;2023-02-28T02:09:37;2.80;99.90
52621;DHT22;38515;53.160;6.990;2023-02-28T02:15:16;2.80;99.90
52621;DHT22;38515;53.160;6.990;2023-02-28T02:17:49;2.80;99.90
52621;DHT22;38515;53.160;6.990;2023-02-28T02:26:49;2.80;99.90
52621;DHT22;38515;53.160;6.990;2023-02-28T02:37:27;2.80;99.90
52621;DHT22;38515;53.160;6.990;2023-02-28T02:42:42;4.60;99.90
52621;DHT22;38515;53.160;6.990;2023-02-28T02:45:35;3.20;99.90
52621;DHT22;38515;53.160;6.990;2023-02-28T02:48:07;2.70;99.90
52621;DHT22;38515;53.160;6.990;2023-02-28T02:50:38;3.00;99.90
52621;DHT22;38515;53.160;6.990;2023-02-28T02:53:06;2.70;99.90
52621;DHT22;38515;53.160;6.990;2023-02-28T02:55:37;4.00;99.90
52621;DHT22;38515;53.160;6.990;2023-02-28T02:58:10;2.70;99.90
52621;DHT22;38515;53.160;6.990;2023-02-28T03:00:43;3.90;99.90
52621;DHT22;38515;53.160;6.990;2023-02-28T03:03:12;2.70;99.90
52621;DHT22;38515;53.160;6.990;2023-02-28T03:05:47;2.70;99.90
52621;DHT22;38515;53.160;6.990;2023-02-28T03:08:14;2.70;99.90
52621;DHT22;38515;53.160;6.990;2023-02-28T03:10:43;2.30;99.90
52621;DHT22;38515;53.160;6.990;2023-02-28T03:16:02;2.60;99.90
52621;DHT22;38515;53.160;6.990;2023-02-28T03:18:47;2.60;99.90
52621;DHT22;38515;53.160;6.990;2023-02-28T03:21:31;2.50;99.90
52621;DHT22;38515;53.160;6.990;2023-02-28T03:24:18;2.30;99.90
52621;DHT22;38515;53.160;6.990;2023-02-28T03:26:52;2.80;99.90
52621;DHT22;38515;53.160;6.990;2023-02-28T03:29:22;2.60;99.90
52621;DHT22;38515;53.160;6.990;2023-02-28T03:31:59;4.00;99.90
52621;DHT22;38515;53.160;6.990;2023-02-28T03:34:36;2.60;99.90
52621;DHT22;38515;53.160;6.990;2023-02-28T03:37:09;2.60;99.90
52621;DHT22;38515;53.160;6.990;2023-02-28T03:39:46;2.30;99.90
52621;DHT22;38515;53.160;6.990;2023-02-28T03:42:20;2.60;99.90
52621;DHT22;38515;53.160;6.990;2023-02-28T03:44:57;2.60;99.90
52621;DHT22;38515;53.160;6.990;2023-02-28T03:47:32;3.40;99.90
52621;DHT22;38515;53.160;6.990;2023-02-28T03:52:38;2.60;99.90
52621;DHT22;38515;53.160;6.990;2023-02-28T03:55:08;2.60;99.90
52621;DHT22;38515;53.160;6.990;2023-02-28T03:57:58;2.60;99.90
52621;DHT22;38515;53.160;6.990;2023-02-28T04:00:37;2.60;99.90
52621;DHT22;38515;53.160;6.990;2023-02-28T04:03:05;2.60;99.90
52621;DHT22;38515;53.160;6.990;2023-02-28T04:05:32;2.60;99.90
52621;DHT22;38515;53.160;6.990;2023-02-28T04:08:06;3.00;99.90
52621;DHT22;38515;53.160;6.990;2023-02-28T04:10:32;2.60;99.90
52621;DHT22;38515;53.160;6.990;2023-02-28T04:12:58;2.60;99.90
52621;DHT22;38515;53.160;6.990;2023-02-28T04:15:24;2.70;99.90
52621;DHT22;38515;53.160;6.990;2023-02-28T04:17:50;5.20;99.90
52621;DHT22;38515;53.160;6.990;2023-02-28T04:20:16;2.60;99.90
52621;DHT22;38515;53.160;6.990;2023-02-28T04:22:42;2.60;99.90
52621;DHT22;38515;53.160;6.990;2023-02-28T04:25:08;2.60;99.90
52621;DHT22;38515;53.160;6.990;2023-02-28T04:27:34;2.50;99.90
52621;DHT22;38515;53.160;6.990;2023-02-28T04:30:00;2.60;99.90
52621;DHT22;38515;53.160;6.990;2023-02-28T04:32:26;2.60;99.90
52621;DHT22;38515;53.160;6.990;2023-02-28T04:34:52;2.70;99.90
52621;DHT22;38515;53.160;6.990;2023-02-28T04:37:18;2.50;99.90
52621;DHT22;38515;53.160;6.990;2023-02-28T04:39:43;2.50;99.90
52621;DHT22;38515;53.160;6.990;2023-02-28T04:42:10;2.60;99.90
52621;DHT22;38515;53.160;6.990;2023-02-28T04:44:36;2.50;99.90
52621;DHT22;38515;53.160;6.990;2023-02-28T04:47:03;2.50;99.90
52621;DHT22;38515;53.160;6.990;2023-02-28T04:49:29;2.50;99.90
52621;DHT22;38515;53.160;6.990;2023-02-28T04:51:55;2.50;99.90
52621;DHT22;38515;53.160;6.990;2023-02-28T04:54:21;1.60;99.90
52621;DHT22;38515;53.160;6.990;2023-02-28T04:56:47;2.20;99.90
52621;DHT22;38515;53.160;6.990;2023-02-28T04:59:15;1.40;99.90
52621;DHT22;38515;53.160;6.990;2023-02-28T05:01:45;2.40;99.90
52621;DHT22;38515;53.160;6.990;2023-02-28T05:04:12;2.50;99.90
52621;DHT22;38515;53.160;6.990;2023-02-28T05:06:37;2.40;99.90
52621;DHT22;38515;53.160;6.990;2023-02-28T05:09:03;2.00;99.90
52621;DHT22;38515;53.160;6.990;2023-02-28T05:11:32;1.70;99.90
52621;DHT22;38515;53.160;6.990;2023-02-28T05:14:06;2.50;99.90
52621;DHT22;38515;53.160;6.990;2023-02-28T05:16:32;2.40;99.90
52621;DHT22;38515;53.160;6.990;2023-02-28T05:18:58;2.40;99.90
52621;DHT22;38515;53.160;6.990;2023-02-28T05:21:30;2.40;99.90
52621;DHT22;38515;53.160;6.990;2023-02-28T05:24:02;2.10;99.90
52621;DHT22;38515;53.160;6.990;2023-02-28T05:26:29;2.40;99.90
52621;DHT22;38515;53.160;6.990;2023-02-28T05:28:55;1.00;99.90
52621;DHT22;38515;53.160;6.990;2023-02-28T05:31:21;2.30;99.90
52621;DHT22;38515;53.160;6.990;2023-02-28T05:33:48;2.40;99.90
52621;DHT22;38515;53.160;6.990;2023-02-28T05:36:13;3.80;99.90
52621;DHT22;38515;53.160;6.990;2023-02-28T05:38:39;2.30;99.90
52621;DHT22;38515;53.160;6.990;2023-02-28T05:41:07;3.10;99.90
52621;DHT22;38515;53.160;6.990;2023-02-28T05:43:33;2.40;99.90
52621;DHT22;38515;53.160;6.990;2023-02-28T05:46:01;2.10;99.90
52621;DHT22;38515;53.160;6.990;2023-02-28T05:48:27;2.00;99.90
52621;DHT22;38515;53.160;6.990;2023-02-28T05:50:53;4.10;99.90
52621;DHT22;38515;53.160;6.990;2023-02-28T05:53:19;3.10;99.90
52621;DHT22;38515;53.160;6.990;2023-02-28T05:55:45;2.80;99.90
52621;DHT22;38515;53.160;6.990;2023-02-28T05:58:10;2.60;99.90
52621;DHT22;38515;53.160;6.990;2023-02-28T06:00:36;2.90;99.90
52621;DHT22;38515;53.160;6.990;2023-02-28T06:03:02;2.20;99.90
52621;DHT22;38515;53.160;6.990;2023-02-28T06:05:28;2.20;99.90
52621;DHT22;38515;53.160;6.990;2023-02-28T06:07:54;2.30;99.90
52621;DHT22;38515;53.160;6.990;2023-02-28T06:10:20;2.90;99.90
52621;DHT22;38515;53.160;6.990;2023-02-28T06:12:46;2.20;99.90
52621;DHT22;38515;53.160;6.990;2023-02-28T06:15:14;2.40;99.90
52621;DHT22;38515;53.160;6.990;2023-02-28T06:17:41;2.20;99.90
52621;DHT22;38515;53.160;6.990;2023-02-28T06:20:09;2.50;99.90
52621;DHT22;38515;53.160;6.990;2023-02-28T06:22:36;2.20;99.90
52621;DHT22;38515;53.160;6.990;2023-02-28T06:25:03;2.00;99.90
52621;DHT22;38515;53.160;6.990;2023-02-28T06:27:30;1.80;99.90
52621;DHT22;38515;53.160;6.990;2023-02-28T06:29:56;1.90;99.90
52621;DHT22;38515;53.160;6.990;2023-02-28T06:32:22;1.80;99.90
52621;DHT22;38515;53.160;6.990;2023-02-28T06:34:48;3.80;99.90
52621;DHT22;38515;53.160;6.990;2023-02-28T06:37:16;2.10;99.90
52621;DHT22;38515;53.160;6.990;2023-02-28T06:39:43;2.00;99.90
52621;DHT22;38515;53.160;6.990;2023-02-28T06:42:09;3.60;99.90
52621;DHT22;38515;53.160;6.990;2023-02-28T06:44:35;1.40;99.90
52621;DHT22;38515;53.160;6.990;2023-02-28T06:47:05;2.00;99.90
52621;DHT22;38515;53.160;6.990;2023-02-28T06:49:32;2.20;99.90
52621;DHT22;38515;53.160;6.990;2023-02-28T06:51:58;2.50;99.90
52621;DHT22;38515;53.160;6.990;2023-02-28T06:54:24;2.20;99.90
52621;DHT22;38515;53.160;6.990;2023-02-28T06:56:50;1.50;99.90
52621;DHT22;38515;53.160;6.990;2023-02-28T06:59:16;2.30;99.90
52621;DHT22;38515;53.160;6.990;2023-02-28T07:01:43;2.20;99.90
52621;DHT22;38515;53.160;6.990;2023-02-28T07:04:09;2.50;99.90
52621;DHT22;38515;53.160;6.990;2023-02-28T07:06:35;2.20;99.90
52621;DHT22;38515;53.160;6.990;2023-02-28T07:09:01;2.30;99.90
52621;DHT22;38515;53.160;6.990;2023-02-28T07:11:27;2.30;99.90
52621;DHT22;38515;53.160;6.990;2023-02-28T07:13:54;2.20;99.90
52621;DHT22;38515;53.160;6.990;2023-02-28T07:16:22;2.20;99.90
52621;DHT22;38515;53.160;6.990;2023-02-28T07:18:49;2.40;99.90
52621;DHT22;38515;53.160;6.990;2023-02-28T07:21:15;1.70;99.90
52621;DHT22;38515;53.160;6.990;2023-02-28T07:23:41;2.40;99.90
52621;DHT22;38515;53.160;6.990;2023-02-28T07:26:11;2.40;99.90
52621;DHT22;38515;53.160;6.990;2023-02-28T07:28:41;2.40;99.90
52621;DHT22;38515;53.160;6.990;2023-02-28T07:31:08;2.50;99.90
52621;DHT22;38515;53.160;6.990;2023-02-28T07:33:35;2.40;99.90
52621;DHT22;38515;53.160;6.990;2023-02-28T07:38:28;2.60;99.90
52621;DHT22;38515;53.160;6.990;2023-02-28T07:43:20;2.70;99.90
52621;DHT22;38515;53.160;6.990;2023-02-28T07:45:46;1.80;99.90
52621;DHT22;38515;53.160;6.990;2023-02-28T07:48:12;3.00;99.90
52621;DHT22;38515;53.160;6.990;2023-02-28T07:50:38;3.00;99.90
52621;DHT22;38515;53.160;6.990;2023-02-28T07:53:04;3.00;99.90
52621;DHT22;38515;53.160;6.990;2023-02-28T07:55:30;3.00;99.90
52621;DHT22;38515;53.160;6.990;2023-02-28T07:57:57;3.00;99.90
52621;DHT22;38515;53.160;6.990;2023-02-28T08:00:23;2.80;99.90
52621;DHT22;38515;53.160;6.990;2023-02-28T08:02:49;3.10;99.90
52621;DHT22;38515;53.160;6.990;2023-02-28T08:05:15;3.00;99.90
52621;DHT22;38515;53.160;6.990;2023-02-28T08:07:41;3.00;99.90
52621;DHT22;38515;53.160;6.990;2023-02-28T08:10:08;3.00;99.90
52621;DHT22;38515;53.160;6.990;2023-02-28T08:12:35;3.10;99.90
52621;DHT22;38515;53.160;6.990;2023-02-28T08:15:01;3.10;99.90
52621;DHT22;38515;53.160;6.990;2023-02-28T08:17:27;3.20;99.90
52621;DHT22;38515;53.160;6.990;2023-02-28T08:19:53;3.50;99.90
52621;DHT22;38515;53.160;6.990;2023-02-28T08:22:19;3.80;99.90
52621;DHT22;38515;53.160;6.990;2023-02-28T08:24:45;4.50;99.90
52621;DHT22;38515;53.160;6.990;2023-02-28T08:27:11;4.20;99.90
52621;DHT22;38515;53.160;6.990;2023-02-28T08:29:38;4.70;99.90
52621;DHT22;38515;53.160;6.990;2023-02-28T08:32:05;5.00;99.90
52621;DHT22;38515;53.160;6.990;2023-02-28T08:34:31;4.90;99.90
52621;DHT22;38515;53.160;6.990;2023-02-28T08:36:57;4.70;99.90
52621;DHT22;38515;53.160;6.990;2023-02-28T08:39:23;4.60;99.90
52621;DHT22;38515;53.160;6.990;2023-02-28T08:41:49;4.40;99.90
52621;DHT22;38515;53.160;6.990;2023-02-28T08:44:15;4.50;99.90
52621;DHT22;38515;53.160;6.990;2023-02-28T08:46:41;4.40;99.90
52621;DHT22;38515;53.160;6.990;2023-02-28T08:49:06;4.30;99.90
52621;DHT22;38515;53.160;6.990;2023-02-28T08:51:33;4.30;99.90
52621;DHT22;38515;53.160;6.990;2023-02-28T08:53:59;4.20;99.90
52621;DHT22;38515;53.160;6.990;2023-02-28T08:56:27;4.40;99.90
52621;DHT22;38515;53.160;6.990;2023-02-28T08:58:55;4.90;99.90
52621;DHT22;38515;53.160;6.990;2023-02-28T09:01:28;5.70;99.90
52621;DHT22;38515;53.160;6.990;2023-02-28T09:03:55;6.50;99.90
52621;DHT22;38515;53.160;6.990;2023-02-28T09:06:23;7.00;99.90
52621;DHT22;38515;53.160;6.990;2023-02-28T09:08:50;7.60;99.90
52621;DHT22;38515;53.160;6.990;2023-02-28T09:11:17;7.70;99.90
52621;DHT22;38515;53.160;6.990;2023-02-28T09:13:44;7.90;99.90
52621;DHT22;38515;53.160;6.990;2023-02-28T09:16:13;8.20;99.90
52621;DHT22;38515;53.160;6.990;2023-02-28T09:18:39;8.50;99.90
52621;DHT22;38515;53.160;6.990;2023-02-28T09:21:09;8.60;99.90
52621;DHT22;38515;53.160;6.990;2023-02-28T09:23:36;8.90;99.90
52621;DHT22;38515;53.160;6.990;2023-02-28T09:26:04;9.00;99.90
52621;DHT22;38515;53.160;6.990;2023-02-28T09:28:30;9.10;99.90
52621;DHT22;38515;53.160;6.990;2023-02-28T09:30:56;9.20;99.90
52621;DHT22;38515;53.160;6.990;2023-02-28T09:33:26;9.30;99.90
52621;DHT22;38515;53.160;6.990;2023-02-28T09:35:58;9.30;99.90
52621;DHT22;38515;53.160;6.990;2023-02-28T09:38:25;9.40;99.90
52621;DHT22;38515;53.160;6.990;2023-02-28T09:40:57;9.30;99.90
52621;DHT22;38515;53.160;6.990;2023-02-28T09:43:26;9.00;99.90
52621;DHT22;38515;53.160;6.990;2023-02-28T09:46:02;8.30;99.90
52621;DHT22;38515;53.160;6.990;2023-02-28T09:48:36;8.10;99.90
52621;DHT22;38515;53.160;6.990;2023-02-28T09:51:15;8.40;99.90
52621;DHT22;38515;53.160;6.990;2023-02-28T09:53:47;8.40;99.90
52621;DHT22;38515;53.160;6.990;2023-02-28T09:56:21;8.10;99.90
52621;DHT22;38515;53.160;6.990;2023-02-28T09:59:23;7.70;99.90
52621;DHT22;38515;53.160;6.990;2023-02-28T10:05:14;7.90;99.90
52621;DHT22;38515;53.160;6.990;2023-02-28T10:10:41;9.00;99.90
52621;DHT22;38515;53.160;6.990;2023-02-28T10:13:35;9.30;99.90
52621;DHT22;38515;53.160;6.990;2023-02-28T10:16:13;8.50;99.90
52621;DHT22;38515;53.160;6.990;2023-02-28T10:18:59;8.40;99.90
52621;DHT22;38515;53.160;6.990;2023-02-28T10:21:59;8.00;99.90
52621;DHT22;38515;53.160;6.990;2023-02-28T10:24:35;8.00;99.90
52621;DHT22;38515;53.160;6.990;2023-02-28T10:27:15;8.10;99.90
52621;DHT22;38515;53.160;6.990;2023-02-28T10:29:47;7.60;99.90
52621;DHT22;38515;53.160;6.990;2023-02-28T10:32:20;7.40;99.90
52621;DHT22;38515;53.160;6.990;2023-02-28T10:35:17;7.20;99.90
52621;DHT22;38515;53.160;6.990;2023-02-28T10:38:09;6.80;99.90
52621;DHT22;38515;53.160;6.990;2023-02-28T10:40:36;7.00;99.90
52621;DHT22;38515;53.160;6.990;2023-02-28T10:43:22;7.20;99.90
52621;DHT22;38515;53.160;6.990;2023-02-28T10:46:13;7.10;99.90
52621;DHT22;38515;53.160;6.990;2023-02-28T10:48:47;7.10;99.90
52621;DHT22;38515;53.160;6.990;2023-02-28T10:51:18;6.80;99.90
52621;DHT22;38515;53.160;6.990;2023-02-28T10:53:52;6.50;99.90
52621;DHT22;38515;53.160;6.990;2023-02-28T10:56:23;6.30;99.90
52621;DHT22;38515;53.160;6.990;2023-02-28T11:01:41;5.80;99.90
52621;DHT22;38515;53.160;6.990;2023-02-28T11:09:40;6.00;99.90
52621;DHT22;38515;53.160;6.990;2023-02-28T11:12:30;6.00;99.90
52621;DHT22;38515;53.160;6.990;2023-02-28T11:15:22;6.10;99.90
52621;DHT22;38515;53.160;6.990;2023-02-28T11:20:36;5.90;99.90
52621;DHT22;38515;53.160;6.990;2023-02-28T11:23:03;6.40;99.90
52621;DHT22;38515;53.160;6.990;2023-02-28T11:25:35;6.70;99.90
52621;DHT22;38515;53.160;6.990;2023-02-28T11:28:03;6.90;99.90
52621;DHT22;38515;53.160;6.990;2023-02-28T11:30:41;7.00;99.90
52621;DHT22;38515;53.160;6.990;2023-02-28T11:33:28;7.20;99.90
52621;DHT22;38515;53.160;6.990;2023-02-28T11:36:02;7.30;99.90
52621;DHT22;38515;53.160;6.990;2023-02-28T11:38:29;7.40;99.90
52621;DHT22;38515;53.160;6.990;2023-02-28T11:43:28;7.00;99.90
52621;DHT22;38515;53.160;6.990;2023-02-28T11:48:43;7.00;99.90
52621;DHT22;38515;53.160;6.990;2023-02-28T11:51:14;7.20;99.90
52621;DHT22;38515;53.160;6.990;2023-02-28T11:56:43;7.50;99.90
52621;DHT22;38515;53.160;6.990;2023-02-28T12:07:48;7.40;99.90
52621;DHT22;38515;53.160;6.990;2023-02-28T12:13:05;7.70;99.90
52621;DHT22;38515;53.160;6.990;2023-02-28T12:16:00;7.80;99.90
52621;DHT22;38515;53.160;6.990;2023-02-28T12:24:33;8.20;99.90
52621;DHT22;38515;53.160;6.990;2023-02-28T12:27:10;8.20;99.90
52621;DHT22;38515;53.160;6.990;2023-02-28T12:29:50;8.40;99.90
52621;DHT22;38515;53.160;6.990;2023-02-28T12:32:32;8.50;99.90
52621;DHT22;38515;53.160;6.990;2023-02-28T12:35:10;8.70;99.90
52621;DHT22;38515;53.160;6.990;2023-02-28T12:37:52;8.70;99.90
52621;DHT22;38515;53.160;6.990;2023-02-28T12:40:23;8.80;99.90
52621;DHT22;38515;53.160;6.990;2023-02-28T12:43:03;8.70;99.90
52621;DHT22;38515;53.160;6.990;2023-02-28T12:45:44;8.60;99.90
52621;DHT22;38515;53.160;6.990;2023-02-28T12:48:15;8.50;99.90
52621;DHT22;38515;53.160;6.990;2023-02-28T12:50:45;8.30;99.90
52621;DHT22;38515;53.160;6.990;2023-02-28T12:56:12;7.80;99.90
52621;DHT22;38515;53.160;6.990;2023-02-28T12:59:02;7.60;99.90
52621;DHT22;38515;53.160;6.990;2023-02-28T13:07:41;7.10;99.90
52621;DHT22;38515;53.160;6.990;2023-02-28T13:10:16;6.90;99.90
52621;DHT22;38515;53.160;6.990;2023-02-28T13:12:52;6.80;99.90
52621;DHT22;38515;53.160;6.990;2023-02-28T13:15:27;6.90;99.90
52621;DHT22;38515;53.160;6.990;2023-02-28T13:18:01;7.10;99.90
52621;DHT22;38515;53.160;6.990;2023-02-28T13:20:34;7.20;99.90
52621;DHT22;38515;53.160;6.990;2023-02-28T13:23:02;7.20;99.90
52621;DHT22;38515;53.160;6.990;2023-02-28T13:28:01;7.50;99.90
52621;DHT22;38515;53.160;6.990;2023-02-28T13:38:47;7.00;99.90
52621;DHT22;38515;53.160;6.990;2023-02-28T13:46:27;6.70;99.90
52621;DHT22;38515;53.160;6.990;2023-02-28T13:48:53;6.90;99.90
52621;DHT22;38515;53.160;6.990;2023-02-28T13:51:42;7.10;99.90
52621;DHT22;38515;53.160;6.990;2023-02-28T13:54:50;7.40;99.90
52621;DHT22;38515;53.160;6.990;2023-02-28T14:05:31;7.70;99.90
52621;DHT22;38515;53.160;6.990;2023-02-28T14:07:59;7.90;99.90
52621;DHT22;38515;53.160;6.990;2023-02-28T14:10:38;8.00;99.90
52621;DHT22;38515;53.160;6.990;2023-02-28T14:13:58;7.80;99.90
52621;DHT22;38515;53.160;6.990;2023-02-28T14:16:06;7.80;99.90
52621;DHT22;38515;53.160;6.990;2023-02-28T14:18:37;7.60;99.90
52621;DHT22;38515;53.160;6.990;2023-02-28T14:21:22;7.40;99.90
52621;DHT22;38515;53.160;6.990;2023-02-28T14:35:43;7.60;99.90
52621;DHT22;38515;53.160;6.990;2023-02-28T14:38:21;7.80;99.90
52621;DHT22;38515;53.160;6.990;2023-02-28T14:40:52;7.80;99.90
52621;DHT22;38515;53.160;6.990;2023-02-28T14:43:29;7.70;99.90
52621;DHT22;38515;53.160;6.990;2023-02-28T14:45:59;7.60;99.90
52621;DHT22;38515;53.160;6.990;2023-02-28T14:48:26;7.60;99.90
52621;DHT22;38515;53.160;6.990;2023-02-28T14:50:55;7.50;99.90
52621;DHT22;38515;53.160;6.990;2023-02-28T14:53:24;7.40;99.90
52621;DHT22;38515;53.160;6.990;2023-02-28T14:55:51;7.20;99.90
52621;DHT22;38515;53.160;6.990;2023-02-28T14:58:29;7.10;99.90
52621;DHT22;38515;53.160;6.990;2023-02-28T15:00:58;6.90;99.90
52621;DHT22;38515;53.160;6.990;2023-02-28T15:03:36;6.80;99.90
52621;DHT22;38515;53.160;6.990;2023-02-28T15:06:16;6.80;99.90
52621;DHT22;38515;53.160;6.990;2023-02-28T15:08:43;6.80;99.90
52621;DHT22;38515;53.160;6.990;2023-02-28T15:11:16;6.80;99.90
52621;DHT22;38515;53.160;6.990;2023-02-28T15:16:41;6.80;99.90
52621;DHT22;38515;53.160;6.990;2023-02-28T15:19:30;6.90;99.90
52621;DHT22;38515;53.160;6.990;2023-02-28T15:22:29;6.80;99.90
52621;DHT22;38515;53.160;6.990;2023-02-28T15:24:57;6.80;99.90
52621;DHT22;38515;53.160;6.990;2023-02-28T15:27:31;6.70;99.90
52621;DHT22;38515;53.160;6.990;2023-02-28T15:30:00;6.70;99.90
52621;DHT22;38515;53.160;6.990;2023-02-28T15:32:29;6.70;99.90
52621;DHT22;38515;53.160;6.990;2023-02-28T15:34:56;6.70;99.90
52621;DHT22;38515;53.160;6.990;2023-02-28T15:37:47;6.80;99.90
52621;DHT22;38515;53.160;6.990;2023-02-28T15:40:18;6.80;99.90
52621;DHT22;38515;53.160;6.990;2023-02-28T15:43:17;6.80;99.90
52621;DHT22;38515;53.160;6.990;2023-02-28T15:45:48;6.70;99.90
52621;DHT22;38515;53.160;6.990;2023-02-28T15:51:12;6.90;99.90
52621;DHT22;38515;53.160;6.990;2023-02-28T15:53:48;6.80;99.90
52621;DHT22;38515;53.160;6.990;2023-02-28T15:56:25;6.90;99.90
52621;DHT22;38515;53.160;6.990;2023-02-28T15:59:16;7.20;99.90
52621;DHT22;38515;53.160;6.990;2023-02-28T16:01:43;7.00;99.90
52621;DHT22;38515;53.160;6.990;2023-02-28T16:04:18;6.90;99.90
52621;DHT22;38515;53.160;6.990;2023-02-28T16:09:23;6.70;99.90
52621;DHT22;38515;53.160;6.990;2023-02-28T16:11:51;6.80;99.90
52621;DHT22;38515;53.160;6.990;2023-02-28T16:14:26;6.90;99.90
52621;DHT22;38515;53.160;6.990;2023-02-28T16:17:07;7.00;99.90
52621;DHT22;38515;53.160;6.990;2023-02-28T16:19:34;7.10;99.90
52621;DHT22;38515;53.160;6.990;2023-02-28T16:22:00;7.20;99.90
52621;DHT22;38515;53.160;6.990;2023-02-28T16:24:26;7.20;99.90
52621;DHT22;38515;53.160;6.990;2023-02-28T16:26:54;7.00;99.90
52621;DHT22;38515;53.160;6.990;2023-02-28T16:29:31;7.00;99.90
52621;DHT22;38515;53.160;6.990;2023-02-28T16:31:57;7.10;99.90
52621;DHT22;38515;53.160;6.990;2023-02-28T16:34:27;7.00;99.90
52621;DHT22;38515;53.160;6.990;2023-02-28T16:36:53;7.00;99.90
52621;DHT22;38515;53.160;6.990;2023-02-28T16:39:19;6.90;99.90
52621;DHT22;38515;53.160;6.990;2023-02-28T16:41:49;6.70;99.90
52621;DHT22;38515;53.160;6.990;2023-02-28T16:44:28;6.50;99.90
52621;DHT22;38515;53.160;6.990;2023-02-28T16:46:55;6.30;99.90
52621;DHT22;38515;53.160;6.990;2023-02-28T16:49:21;6.10;99.90
52621;DHT22;38515;53.160;6.990;2023-02-28T16:51:47;6.00;99.90
52621;DHT22;38515;53.160;6.990;2023-02-28T16:54:13;5.90;99.90
52621;DHT22;38515;53.160;6.990;2023-02-28T16:56:42;5.70;99.90
52621;DHT22;38515;53.160;6.990;2023-02-28T16:59:10;5.60;99.90
52621;DHT22;38515;53.160;6.990;2023-02-28T17:01:37;5.40;99.90
52621;DHT22;38515;53.160;6.990;2023-02-28T17:04:03;5.30;99.90
52621;DHT22;38515;53.160;6.990;2023-02-28T17:06:29;5.10;99.90
52621;DHT22;38515;53.160;6.990;2023-02-28T17:08:57;4.90;99.90
52621;DHT22;38515;53.160;6.990;2023-02-28T17:11:24;4.80;99.90
52621;DHT22;38515;53.160;6.990;2023-02-28T17:13:50;4.70;99.90
52621;DHT22;38515;53.160;6.990;2023-02-28T17:16:26;4.50;99.90
52621;DHT22;38515;53.160;6.990;2023-02-28T17:18:54;4.30;99.90
52621;DHT22;38515;53.160;6.990;2023-02-28T17:21:22;3.50;99.90
52621;DHT22;38515;53.160;6.990;2023-02-28T17:23:48;4.00;99.90
52621;DHT22;38515;53.160;6.990;2023-02-28T17:26:16;3.90;99.90
52621;DHT22;38515;53.160;6.990;2023-02-28T17:28:54;3.80;99.90
52621;DHT22;38515;53.160;6.990;2023-02-28T17:31:22;3.90;99.90
52621;DHT22;38515;53.160;6.990;2023-02-28T17:33:48;3.50;99.90
52621;DHT22;38515;53.160;6.990;2023-02-28T17:36:15;3.30;99.90
52621;DHT22;38515;53.160;6.990;2023-02-28T17:38:42;3.30;99.90
52621;DHT22;38515;53.160;6.990;2023-02-28T17:41:10;3.30;99.90
52621;DHT22;38515;53.160;6.990;2023-02-28T17:43:36;3.20;99.90
52621;DHT22;38515;53.160;6.990;2023-02-28T17:46:02;3.20;99.90
52621;DHT22;38515;53.160;6.990;2023-02-28T17:48:31;3.10;99.90
52621;DHT22;38515;53.160;6.990;2023-02-28T17:50:57;3.00;99.90
52621;DHT22;38515;53.160;6.990;2023-02-28T17:53:23;2.80;99.90
52621;DHT22;38515;53.160;6.990;2023-02-28T17:55:49;2.90;99.90
52621;DHT22;38515;53.160;6.990;2023-02-28T17:58:16;2.80;99.90
52621;DHT22;38515;53.160;6.990;2023-02-28T18:00:44;2.70;99.90
52621;DHT22;38515;53.160;6.990;2023-02-28T18:03:11;3.60;99.90
52621;DHT22;38515;53.160;6.990;2023-02-28T18:05:39;3.00;99.90
52621;DHT22;38515;53.160;6.990;2023-02-28T18:08:05;2.70;99.90
52621;DHT22;38515;53.160;6.990;2023-02-28T18:10:31;2.30;99.90
52621;DHT22;38515;53.160;6.990;2023-02-28T18:12:59;2.60;99.90
52621;DHT22;38515;53.160;6.990;2023-02-28T18:15:25;2.50;99.90